KSEE/SEE METAR and TAF weather

Enter ICAO airport designator
Station Type Date Time Source
KSEE METAR 2019/08/18 18:47 UTC NOAA

KSEE 181847Z 00000KT 10SM SKC 26/14 A2993


Station Type Date Time Source
KSEE Decoded METAR 2019/08/18 18:47 UTC NOAA

Station name not available
Aug 18, 2019 - 02:47 PM EDT / 2019.08.18 1847 UTC
Wind: Calm:0
Visibility: 10 mile(s):0
Sky conditions: clear
Temperature: 78 F (26 C)
Dew Point: 57 F (14 C)
Relative Humidity: 47%
Pressure (altimeter): 29.93 in. Hg (1013 hPa)
ob: KSEE 181847Z 00000KT 10SM SKC 26/14 A2993
cycle: 19

Station Type Date Time Source
KSEE TAF UTC NOAA

Error!

Example: see airport list